Akune, Japan

8:06 PM JST on 三月 29, 2017 (GMT +0900)
Kanoya | | Change Station

高度 223 ft 31.37 °N, 130.83 °E | Updated 16 minutes ago

曇
54 °F
体感気温 54 °F
5
風 変数 風 から 東北東

今日
高い -- | 低 -- °F
--% 降水確率
昨日
高い -- | 低 -- °F
Precip. -- インチ
気圧 30.18 インチ
視程 -9999.0 マイル
わずか 500 ft
だいたい曇 2500 ft
曇 4000 ft
露点温度 50 °F
湿度 88%
降水 0.00 インチ
積雪深 利用不可。
6:11 AM 6:36 PM
三日月, 3% visible
SPECI RJFY 291050Z 07004KT 4900 -SHRA BR FEW005 BKN025 OVC040 12/10 Q1022 RMK 1ST005 5CU025 8SC040 A3018
気圧 30.18 インチ
視程 -9999.0 マイル
わずか 500 ft
だいたい曇 2500 ft
曇 4000 ft
露点温度 50 °F
湿度 88%
降水 0.00 インチ
積雪深 利用不可。
6:11 AM 6:36 PM
三日月, 3% visible
SPECI RJFY 291050Z 07004KT 4900 -SHRA BR FEW005 BKN025 OVC040 12/10 Q1022 RMK 1ST005 5CU025 8SC040 A3018

Get Severe Weather Alerts

Thanks for signing up!

Be on the lookout for a verification email in your inbox.

You'll start receiving the daily forecast at 8 AM.

×

10-Day Weather Forecast

No radar image for this location.
×

Almanac

天文

Mar. 29, 2017 入り
実時間
常用薄明
航海薄明
天文薄明
可視光の長さ
可照時間
Tomorrow will be .
, % of the Moon is Illuminated

今日の極値

Country Highs Country Lows

Community

WunderPhotos

Upload Photos

1,962,540 写真がアップロードされました!

WunderBlog® & News

Nearby

空気品質

  空気品質 大気質指数 汚染物質
Not available.

積雪深

Station Depth 高度

地震活動

Distance Mag. Time & Date
Minimum magnitude displayed is 2.5.

地震活動

Distance Mag. Time & Date
Minimum magnitude displayed is 2.5.

沿岸の水温

地名 気温

Stations

最寄りの気象観測所

観測所位置 温度 体感気温(寒さ) 露点温度 湿度 Precip. 高度 更新日時 タイプする